Ettelbruck, Luxembourg
Current Conditions -  °F | °C
As of 7:50 AM on Monday 24 Nov 2014 (Local Time) from ELLX Reporting Station
Broken Clouds Broken Clouds  
Wind Chill: 44°   Ceiling: 1600
Heat Index: 48°   Visibility: 6mi
Dew Point: 46°   Wind: 9mph
Humidity: 93%   Direction: 360°N
Pressure: 30.15"   Gusts: NA
Location:  49.85°N, 6.1°E
Report Text: ELLX 240650Z 36008KT 9000 FEW008 BKN016 09/08 Q1021 TEMPO 2500 -DZ BR
Loading
Personal Weather Stations






























Interactive Weather Map New forecast layout! Learn more

10-Day Weather Forecast

Advertisements
Track Severe Weather on mobile